< Cyclone 201723 2017 Season Cyclone 201726 >
Cyclone 201724 (Debbie)
General InformationTrack Information on Google MapsDetailed Wind InformationList of All Images || ResourceGoogle EarthGE AnimationAtom FeedGeoJSON
Detalied Best Track (Time Zone = UTC)
Year Month Day Hour Lat. Long. Pressure (hPa) Wind (kt) Class Image Chart
2017 3 23 06 -14.0 151.6 1000 20 2 Image --
2017 3 23 12 -14.4 151.5 1000 20 2 Image --
2017 3 23 18 -15.2 151.3 1000 25 2 Image --
2017 3 24 00 -15.8 151.3 999 25 2 Image --
2017 3 24 06 -16.3 151.6 996 25 2 Image --
2017 3 24 12 -16.7 151.8 996 30 2 Image --
2017 3 24 18 -16.9 152.1 991 30 2 Image --
2017 3 25 00 -17.2 152.1 991 35 3 Image --
2017 3 25 06 -17.5 152.1 990 40 3 Image --
2017 3 25 12 -17.6 152.0 986 55 4 Image --
2017 3 25 18 -17.8 151.7 984 55 4 Image --
2017 3 26 00 -18.0 151.4 986 55 4 Image --
2017 3 26 06 -18.2 151.1 978 60 4 Image --
2017 3 26 12 -18.3 150.7 982 60 4 Image --
2017 3 26 18 -18.6 150.5 980 60 4 Image --
2017 3 27 00 -19.0 150.4 974 70 5 Image --
2017 3 27 06 -19.4 150.2 959 80 5 Image --
2017 3 27 12 -19.4 149.7 949 95 5 Image --
2017 3 27 18 -19.6 149.3 949 95 5 Image --
2017 3 28 00 -19.9 148.9 956 90 5 Image --
2017 3 28 06 -20.3 148.4 965 70 5 Image --
2017 3 28 12 -20.6 147.9 980 50 4 Image --
2017 3 28 18 -21.1 147.3 989 35 3 Image --
2017 3 29 00 -21.5 146.9 994 30 2 Image --
2017 3 29 06 -22.0 146.9 995 25 2 Image --
2017 3 29 12 -22.8 147.4 999 20 2 Image --
2017 3 29 18 -23.9 148.0 999 20 2 Image --
2017 3 30 00 -24.6 148.8 1002 20 2 Image --
2017 3 30 06 -25.8 152.7 999 25 2 Image --
2017 3 30 12 -27.7 153.1 994 35 3 Image --
2017 3 30 18 -27.8 154.2 995 35 3 Image --
2017 3 31 00 -27.9 156.1 998 30 2 Image --
2017 3 31 06 -28.1 157.1 998 30 2 Image --
2017 3 31 12 -28.4 158.1 999 30 2 Image --
2017 3 31 18 -28.8 158.7 1000 25 2 Image --
2017 4 1 00 -29.1 159.2 1002 20 2 Image --
< Cyclone 201723 2017 Season Cyclone 201726 >

Help